createdAt,value
2018-05-06T00:00:52.292Z,3.47
2018-05-06T00:03:20.611Z,3.53
2018-05-06T00:05:48.156Z,3.63
2018-05-06T00:08:15.704Z,3.20
2018-05-06T00:10:43.248Z,3.70
2018-05-06T00:13:10.824Z,3.97
2018-05-06T00:15:38.629Z,4.20
2018-05-06T00:18:06.176Z,4.07
2018-05-06T00:20:34.495Z,4.20
2018-05-06T00:23:02.052Z,4.40
2018-05-06T00:25:29.623Z,4.00
2018-05-06T00:27:57.172Z,4.10
2018-05-06T00:30:25.486Z,4.67
2018-05-06T00:32:53.036Z,4.20
2018-05-06T00:35:20.584Z,3.83
2018-05-06T00:37:48.164Z,3.60
2018-05-06T00:40:15.718Z,3.53
2018-05-06T00:42:43.264Z,3.60
2018-05-06T00:45:10.812Z,3.10
2018-05-06T00:47:39.125Z,3.70
2018-05-06T00:50:06.708Z,3.70
2018-05-06T00:52:34.275Z,3.80
2018-05-06T00:55:01.827Z,3.60
2018-05-06T00:57:29.373Z,4.07
2018-05-06T00:59:56.916Z,3.70
2018-05-06T01:02:24.477Z,4.13
2018-05-06T01:04:52.024Z,4.33
2018-05-06T01:07:19.576Z,4.10
2018-05-06T01:09:47.130Z,3.60
2018-05-06T01:12:14.684Z,3.97
2018-05-06T01:14:42.233Z,4.23
2018-05-06T01:17:09.779Z,4.20
2018-05-06T01:19:37.352Z,3.73
2018-05-06T01:22:04.904Z,3.83
2018-05-06T01:24:32.449Z,3.57
2018-05-06T01:26:59.995Z,3.57
2018-05-06T01:29:28.309Z,3.67
2018-05-06T01:31:55.880Z,3.33
2018-05-06T01:34:23.440Z,3.60
2018-05-06T01:36:50.996Z,3.43
2018-05-06T01:39:18.541Z,2.80
2018-05-06T01:41:46.089Z,3.07
2018-05-06T01:44:13.662Z,3.50
2018-05-06T01:46:41.226Z,3.70
2018-05-06T01:49:08.784Z,3.40
2018-05-06T01:51:36.331Z,2.83
2018-05-06T01:54:03.876Z,3.30
2018-05-06T01:56:31.449Z,3.40
2018-05-06T01:58:59.002Z,3.27
2018-05-06T02:01:26.548Z,3.33
2018-05-06T02:03:54.097Z,3.67
2018-05-06T02:06:21.646Z,3.40
2018-05-06T02:08:49.212Z,3.87
2018-05-06T02:11:16.761Z,3.90
2018-05-06T02:13:44.386Z,3.90
2018-05-06T02:16:11.879Z,3.80
2018-05-06T02:18:40.192Z,3.50
2018-05-06T02:21:07.773Z,3.80
2018-05-06T02:23:35.324Z,4.13
2018-05-06T02:26:02.875Z,4.00
2018-05-06T02:28:30.423Z,4.10
2018-05-06T02:30:57.973Z,4.83
2018-05-06T02:33:25.544Z,4.67
2018-05-06T02:35:53.086Z,4.40
2018-05-06T02:38:20.634Z,4.60
2018-05-06T02:40:48.956Z,4.00
2018-05-06T02:43:16.503Z,4.13
2018-05-06T02:45:44.088Z,4.57
2018-05-06T02:48:11.644Z,4.20
2018-05-06T02:50:39.192Z,4.50
2018-05-06T02:53:06.742Z,3.77
2018-05-06T02:55:34.293Z,4.17
2018-05-06T02:58:01.864Z,4.40
2018-05-06T03:00:29.411Z,3.93
2018-05-06T03:02:56.955Z,4.43
2018-05-06T03:05:24.509Z,4.50
2018-05-06T03:07:52.061Z,3.80
2018-05-06T03:10:19.624Z,4.23
2018-05-06T03:12:47.176Z,4.40
2018-05-06T03:15:14.719Z,4.33
2018-05-06T03:17:42.268Z,4.03
2018-05-06T03:20:09.816Z,4.13
2018-05-06T03:22:37.388Z,3.60
2018-05-06T03:25:04.933Z,3.60
2018-05-06T03:27:32.480Z,4.27
2018-05-06T03:30:00.025Z,3.80
2018-05-06T03:32:27.569Z,3.53
2018-05-06T03:34:55.140Z,3.87
2018-05-06T03:37:22.684Z,3.67
2018-05-06T03:39:50.228Z,3.90
2018-05-06T03:42:17.784Z,3.33
2018-05-06T03:44:45.324Z,4.03
2018-05-06T03:47:12.901Z,3.40
2018-05-06T03:49:40.456Z,3.60
2018-05-06T03:52:08.004Z,3.70
2018-05-06T03:54:35.553Z,3.47
2018-05-06T03:57:14.692Z,3.13
2018-05-06T03:59:53.944Z,3.47
2018-05-06T04:05:20.684Z,3.00
2018-05-06T04:07:48.236Z,2.83
2018-05-06T04:10:15.804Z,3.80
2018-05-06T04:12:44.115Z,2.87
2018-05-06T04:15:11.669Z,3.00
2018-05-06T04:17:39.220Z,3.00
2018-05-06T04:20:06.777Z,3.10
2018-05-06T04:22:34.376Z,2.80
2018-05-06T04:25:01.927Z,2.90
2018-05-06T04:27:29.477Z,2.70
2018-05-06T04:29:57.798Z,2.87
2018-05-06T04:32:25.347Z,2.90
2018-05-06T04:34:52.929Z,3.40
2018-05-06T04:37:20.479Z,3.60
2018-05-06T04:39:48.026Z,3.57
2018-05-06T04:42:15.580Z,3.97
2018-05-06T04:44:43.142Z,3.90
2018-05-06T04:47:10.717Z,3.27
2018-05-06T04:49:38.267Z,3.50
2018-05-06T04:52:05.824Z,3.10
2018-05-06T04:54:33.372Z,3.37
2018-05-06T04:57:00.925Z,3.27
2018-05-06T04:59:28.510Z,3.13
2018-05-06T05:01:56.068Z,2.77
2018-05-06T05:04:23.616Z,3.00
2018-05-06T05:06:51.168Z,2.83
2018-05-06T05:09:18.716Z,2.90
2018-05-06T05:11:46.292Z,2.97
2018-05-06T05:14:13.848Z,2.70
2018-05-06T05:16:41.404Z,2.93
2018-05-06T05:19:08.952Z,3.00
2018-05-06T05:21:36.508Z,2.90
2018-05-06T05:24:04.870Z,3.07
2018-05-06T05:26:32.420Z,2.70
2018-05-06T05:28:59.972Z,3.23
2018-05-06T05:31:27.524Z,3.00
2018-05-06T05:33:55.843Z,3.00
2018-05-06T05:36:23.424Z,2.60
2018-05-06T05:38:50.978Z,2.73
2018-05-06T05:41:18.536Z,2.80
2018-05-06T05:43:46.083Z,3.03
2018-05-06T05:46:13.633Z,3.10
2018-05-06T05:48:41.212Z,3.13
2018-05-06T05:51:08.772Z,3.23
2018-05-06T05:53:36.332Z,3.13
2018-05-06T05:56:03.880Z,2.73
2018-05-06T05:58:31.440Z,3.07
2018-05-06T06:00:59.017Z,3.33
2018-05-06T06:03:26.600Z,3.17
2018-05-06T06:05:54.148Z,3.10
2018-05-06T06:08:21.708Z,3.03
2018-05-06T06:10:49.276Z,3.00
2018-05-06T06:13:16.869Z,3.00
2018-05-06T06:15:44.422Z,2.70
2018-05-06T06:18:12.168Z,3.70
2018-05-06T06:20:39.720Z,3.50
2018-05-06T06:23:07.272Z,3.20
2018-05-06T06:25:34.844Z,3.50
2018-05-06T06:28:02.395Z,3.57
2018-05-06T06:30:29.948Z,3.63
2018-05-06T06:32:57.524Z,4.10
2018-05-06T06:35:25.083Z,3.63
2018-05-06T06:37:52.664Z,3.50
2018-05-06T06:40:20.231Z,3.50
2018-05-06T06:42:47.780Z,3.20
2018-05-06T06:45:15.332Z,3.73
2018-05-06T06:47:42.884Z,3.23
2018-05-06T06:50:10.466Z,3.30
2018-05-06T06:52:38.018Z,3.10
2018-05-06T06:55:05.564Z,3.40
2018-05-06T06:57:33.120Z,3.70
2018-05-06T07:00:00.674Z,3.30
2018-05-06T07:02:28.260Z,3.40
2018-05-06T07:04:55.814Z,3.30
2018-05-06T07:07:23.374Z,3.57
2018-05-06T07:09:50.927Z,3.50
2018-05-06T07:12:18.480Z,3.30
2018-05-06T07:14:46.063Z,3.60
2018-05-06T07:17:13.621Z,3.67
2018-05-06T07:19:41.948Z,3.50
2018-05-06T07:22:09.504Z,3.57
2018-05-06T07:24:37.067Z,3.87
2018-05-06T07:27:05.412Z,3.17
2018-05-06T07:29:32.959Z,3.70
2018-05-06T07:32:00.517Z,3.70
2018-05-06T07:34:28.836Z,3.53
2018-05-06T07:36:56.386Z,3.77
2018-05-06T07:39:23.969Z,3.33
2018-05-06T07:41:51.521Z,3.33
2018-05-06T07:44:19.076Z,3.47
2018-05-06T07:46:46.625Z,3.23
2018-05-06T07:49:14.180Z,3.30
2018-05-06T07:51:41.762Z,3.40
2018-05-06T07:54:09.312Z,3.30
2018-05-06T07:56:36.869Z,3.17
2018-05-06T07:59:04.428Z,3.43
2018-05-06T08:01:31.990Z,3.30
2018-05-06T08:04:00.341Z,3.40
2018-05-06T08:06:27.900Z,3.40
2018-05-06T08:08:55.452Z,3.93
2018-05-06T08:11:24.319Z,3.27
2018-05-06T08:13:52.732Z,3.37
2018-05-06T08:16:20.315Z,3.60
2018-05-06T08:18:47.877Z,3.20
2018-05-06T08:21:15.431Z,3.13
2018-05-06T08:23:42.984Z,3.97
2018-05-06T08:26:10.536Z,3.53
2018-05-06T08:28:38.112Z,3.30
2018-05-06T08:31:05.712Z,3.17
2018-05-06T08:33:33.240Z,3.67
2018-05-06T08:36:00.792Z,3.50
2018-05-06T08:38:28.354Z,3.60
2018-05-06T08:40:56.708Z,3.60
2018-05-06T08:43:24.260Z,3.40
2018-05-06T08:45:51.893Z,3.47
2018-05-06T08:48:19.413Z,3.50
2018-05-06T08:50:46.972Z,3.33
2018-05-06T08:53:14.552Z,3.67
2018-05-06T08:55:42.105Z,3.43
2018-05-06T08:58:09.682Z,3.50
2018-05-06T09:00:37.235Z,3.57
2018-05-06T09:03:04.798Z,3.50
2018-05-06T09:05:32.377Z,3.27
2018-05-06T09:07:59.936Z,3.37
2018-05-06T09:10:27.523Z,2.90
2018-05-06T09:12:55.071Z,3.70
2018-05-06T09:15:22.639Z,3.60
2018-05-06T09:17:50.212Z,3.57
2018-05-06T09:20:17.768Z,3.33
2018-05-06T09:22:45.402Z,3.33
2018-05-06T09:25:12.959Z,3.40
2018-05-06T09:27:40.516Z,3.37
2018-05-06T09:30:08.088Z,3.37
2018-05-06T09:32:35.641Z,3.23
2018-05-06T09:35:03.209Z,3.50
2018-05-06T09:37:30.779Z,3.23
2018-05-06T09:39:58.337Z,3.57
2018-05-06T09:42:26.676Z,3.60
2018-05-06T09:44:54.232Z,3.10
2018-05-06T09:47:21.793Z,3.33
2018-05-06T09:49:49.343Z,3.13
2018-05-06T09:52:16.896Z,3.23
2018-05-06T09:54:44.464Z,3.57
2018-05-06T09:57:12.028Z,3.33
2018-05-06T09:59:39.576Z,3.67
2018-05-06T10:02:07.210Z,3.30
2018-05-06T10:04:34.708Z,3.30
2018-05-06T10:07:02.261Z,3.40
2018-05-06T10:09:29.816Z,3.57
2018-05-06T10:11:57.372Z,3.60
2018-05-06T10:14:24.923Z,3.30
2018-05-06T10:16:52.496Z,3.40
2018-05-06T10:19:20.048Z,3.30
2018-05-06T10:21:47.604Z,3.07
2018-05-06T10:24:15.155Z,3.53
2018-05-06T10:26:43.476Z,3.10
2018-05-06T10:29:11.056Z,3.10
2018-05-06T10:31:38.612Z,3.40
2018-05-06T10:34:06.169Z,3.43
2018-05-06T10:36:33.720Z,3.43
2018-05-06T10:39:01.272Z,3.40
2018-05-06T10:41:28.840Z,3.93
2018-05-06T10:43:56.454Z,3.30
2018-05-06T10:46:23.977Z,3.10
2018-05-06T10:48:51.533Z,3.23
2018-05-06T10:51:19.111Z,3.43
2018-05-06T10:53:46.726Z,3.30
2018-05-06T10:56:14.276Z,3.80
2018-05-06T10:58:41.829Z,3.70
2018-05-06T11:01:10.148Z,4.03
2018-05-06T11:03:37.701Z,3.83
2018-05-06T11:06:05.275Z,3.40
2018-05-06T11:08:32.851Z,3.37
2018-05-06T11:11:00.403Z,3.73
2018-05-06T11:13:27.960Z,3.40
2018-05-06T11:15:55.513Z,3.67
2018-05-06T11:18:23.084Z,3.60
2018-05-06T11:20:50.675Z,3.70
2018-05-06T11:23:19.014Z,3.60
2018-05-06T11:25:46.573Z,3.70
2018-05-06T11:28:14.132Z,3.40
2018-05-06T11:30:41.708Z,3.47
2018-05-06T11:33:10.032Z,4.00
2018-05-06T11:35:37.591Z,3.70
2018-05-06T11:38:05.149Z,3.47
2018-05-06T11:40:32.696Z,3.67
2018-05-06T11:43:00.272Z,3.00
2018-05-06T11:45:27.830Z,3.40
2018-05-06T11:47:55.384Z,3.57
2018-05-06T11:50:22.933Z,3.73
2018-05-06T11:52:50.481Z,3.57
2018-05-06T11:55:18.057Z,3.80
2018-05-06T11:57:45.614Z,3.63
2018-05-06T12:00:13.168Z,3.83
2018-05-06T12:02:40.722Z,3.30
2018-05-06T12:05:08.304Z,3.43
2018-05-06T12:07:35.876Z,3.60
2018-05-06T12:10:03.471Z,3.40
2018-05-06T12:12:31.092Z,3.80
2018-05-06T12:15:00.173Z,3.63
2018-05-06T12:17:27.754Z,3.60
2018-05-06T12:19:55.304Z,3.40
2018-05-06T12:22:22.861Z,3.73
2018-05-06T12:24:50.416Z,3.37
2018-05-06T12:27:17.967Z,3.43
2018-05-06T12:29:45.536Z,3.80
2018-05-06T12:32:13.120Z,3.43
2018-05-06T12:34:40.671Z,3.67
2018-05-06T12:37:08.228Z,3.60
2018-05-06T12:39:36.573Z,3.93
2018-05-06T12:42:04.148Z,3.80
2018-05-06T12:44:31.704Z,3.67
2018-05-06T12:46:59.266Z,3.60
2018-05-06T12:49:26.890Z,3.70
2018-05-06T12:51:54.416Z,3.60
2018-05-06T12:54:21.992Z,3.60
2018-05-06T12:56:49.544Z,3.70
2018-05-06T12:59:17.109Z,3.53
2018-05-06T13:01:44.659Z,3.70
2018-05-06T13:04:12.212Z,3.30
2018-05-06T13:06:39.804Z,3.33
2018-05-06T13:09:07.360Z,3.17
2018-05-06T13:11:34.912Z,3.17
2018-05-06T13:14:02.468Z,3.53
2018-05-06T13:16:30.017Z,3.30
2018-05-06T13:18:57.596Z,3.70
2018-05-06T13:21:25.148Z,3.53
2018-05-06T13:23:52.700Z,2.90
2018-05-06T13:26:20.248Z,3.10
2018-05-06T13:28:47.799Z,3.00
2018-05-06T13:31:15.380Z,3.50
2018-05-06T13:33:42.932Z,3.47
2018-05-06T13:36:10.487Z,3.70
2018-05-06T13:38:38.052Z,2.90
2018-05-06T13:41:05.605Z,2.83
2018-05-06T13:43:33.188Z,3.60
2018-05-06T13:46:00.812Z,2.80
2018-05-06T13:48:28.360Z,3.13
2018-05-06T13:50:55.916Z,2.50
2018-05-06T13:53:23.483Z,2.63
2018-05-06T13:55:51.066Z,3.20
2018-05-06T13:58:18.638Z,2.67
2018-05-06T14:00:46.193Z,2.47
2018-05-06T14:03:13.754Z,2.53
2018-05-06T14:05:41.328Z,2.70
2018-05-06T14:08:08.900Z,2.70
2018-05-06T14:10:37.543Z,2.70
2018-05-06T14:13:05.292Z,2.80
2018-05-06T14:15:32.849Z,3.00
2018-05-06T14:18:00.968Z,2.83
2018-05-06T14:20:29.712Z,2.57
2018-05-06T14:22:57.280Z,2.40
2018-05-06T14:25:24.838Z,2.63
2018-05-06T14:27:52.697Z,2.80
2018-05-06T14:30:20.316Z,2.90
2018-05-06T14:32:47.908Z,2.70
2018-05-06T14:35:15.476Z,2.63
2018-05-06T14:37:43.029Z,2.50
2018-05-06T14:40:10.582Z,2.23
2018-05-06T14:42:38.142Z,2.50
2018-05-06T14:45:05.729Z,2.53
2018-05-06T14:47:45.241Z,2.27
2018-05-06T14:50:12.825Z,2.57
2018-05-06T14:52:40.376Z,2.60
2018-05-06T14:55:09.436Z,2.47
2018-05-06T14:57:36.999Z,2.60
2018-05-06T15:00:04.553Z,2.10
2018-05-06T15:02:32.148Z,2.30
2018-05-06T15:04:59.701Z,2.40
2018-05-06T15:07:27.256Z,2.40
2018-05-06T15:09:55.572Z,2.30
2018-05-06T15:12:23.897Z,2.10
2018-05-06T15:14:51.472Z,2.30
2018-05-06T15:17:19.044Z,2.10
2018-05-06T15:19:47.376Z,2.43
2018-05-06T15:22:14.930Z,2.30
2018-05-06T15:24:42.491Z,2.30
2018-05-06T15:27:10.153Z,2.60
2018-05-06T15:29:37.711Z,2.37
2018-05-06T15:32:05.276Z,2.70
2018-05-06T15:34:32.833Z,2.53
2018-05-06T15:37:00.388Z,2.50
2018-05-06T15:39:27.968Z,2.67
2018-05-06T15:41:55.524Z,2.60
2018-05-06T15:44:23.076Z,2.37
2018-05-06T15:46:50.627Z,2.53
2018-05-06T15:49:18.176Z,2.57
2018-05-06T15:51:45.759Z,2.63
2018-05-06T15:54:13.313Z,2.40
2018-05-06T15:56:40.870Z,2.60
2018-05-06T15:59:08.450Z,2.50
2018-05-06T16:01:36.060Z,2.90
2018-05-06T16:04:16.312Z,2.57
2018-05-06T16:06:43.864Z,2.50
2018-05-06T16:09:11.439Z,2.33
2018-05-06T16:11:38.994Z,2.57
2018-05-06T16:14:06.544Z,2.63
2018-05-06T16:16:34.100Z,2.20
2018-05-06T16:19:01.652Z,2.20
2018-05-06T16:21:29.229Z,2.50
2018-05-06T16:23:57.552Z,2.23
2018-05-06T16:26:25.105Z,2.07
2018-05-06T16:28:52.661Z,2.07
2018-05-06T16:31:20.211Z,2.13
2018-05-06T16:33:47.792Z,2.30
2018-05-06T16:36:15.341Z,2.37
2018-05-06T16:38:42.900Z,2.10
2018-05-06T16:41:10.449Z,2.10
2018-05-06T16:43:38.003Z,2.00
2018-05-06T16:46:05.591Z,2.20
2018-05-06T16:48:33.913Z,2.40
2018-05-06T16:51:01.476Z,2.17
2018-05-06T16:53:29.032Z,2.27
2018-05-06T16:55:56.600Z,2.37
2018-05-06T16:58:24.168Z,2.23
2018-05-06T17:00:51.720Z,2.53
2018-05-06T17:03:19.276Z,2.10
2018-05-06T17:05:46.840Z,2.03
2018-05-06T17:08:14.401Z,2.40
2018-05-06T17:10:41.980Z,2.37
2018-05-06T17:13:10.299Z,2.10
2018-05-06T17:15:37.855Z,2.00
2018-05-06T17:18:05.404Z,2.13
2018-05-06T17:20:32.952Z,2.30
2018-05-06T17:23:00.631Z,1.73
2018-05-06T17:25:28.947Z,2.13
2018-05-06T17:27:56.505Z,3.80
2018-05-06T17:30:24.056Z,3.27
2018-05-06T17:32:51.615Z,2.20
2018-05-06T17:35:19.193Z,2.10
2018-05-06T17:37:46.755Z,1.90
2018-05-06T17:40:15.177Z,1.97
2018-05-06T17:42:42.783Z,2.20
2018-05-06T17:45:10.324Z,1.97
2018-05-06T17:47:37.895Z,1.87
2018-05-06T17:50:05.455Z,2.30
2018-05-06T17:52:33.010Z,2.03
2018-05-06T17:55:00.567Z,1.97
2018-05-06T17:57:28.122Z,2.20
2018-05-06T17:59:55.696Z,2.30
2018-05-06T18:02:24.017Z,1.93
2018-05-06T18:04:51.569Z,2.20
2018-05-06T18:07:19.116Z,2.10
2018-05-06T18:09:46.671Z,2.10
2018-05-06T18:12:14.255Z,2.23
2018-05-06T18:14:41.814Z,2.00
2018-05-06T18:17:09.364Z,1.90
2018-05-06T18:19:36.920Z,2.00
2018-05-06T18:22:04.480Z,2.23
2018-05-06T18:24:32.109Z,2.00
2018-05-06T18:26:59.638Z,2.37
2018-05-06T18:29:27.193Z,1.90
2018-05-06T18:31:54.740Z,2.07
2018-05-06T18:34:22.289Z,2.13
2018-05-06T18:36:49.875Z,2.80
2018-05-06T18:39:17.434Z,2.47
2018-05-06T18:41:44.989Z,2.20
2018-05-06T18:44:12.540Z,2.00
2018-05-06T18:46:40.158Z,2.13
2018-05-06T18:49:08.463Z,2.30
2018-05-06T18:51:36.024Z,2.30
2018-05-06T18:54:03.580Z,2.00
2018-05-06T18:56:31.137Z,2.40
2018-05-06T18:58:58.687Z,2.70
2018-05-06T19:01:26.256Z,2.30
2018-05-06T19:03:53.813Z,2.40
2018-05-06T19:06:21.364Z,2.27
2018-05-06T19:08:48.916Z,2.90
2018-05-06T19:11:16.464Z,2.10
2018-05-06T19:13:44.042Z,2.10
2018-05-06T19:16:11.592Z,2.10
2018-05-06T19:18:39.173Z,2.03
2018-05-06T19:21:06.724Z,2.20
2018-05-06T19:23:34.281Z,2.20
2018-05-06T19:26:01.864Z,2.23
2018-05-06T19:28:30.184Z,2.20
2018-05-06T19:30:57.742Z,2.50
2018-05-06T19:33:25.296Z,2.83
2018-05-06T19:35:52.854Z,3.43
2018-05-06T19:38:20.455Z,3.63
2018-05-06T19:40:48.020Z,3.33
2018-05-06T19:43:15.568Z,2.50
2018-05-06T19:45:43.120Z,2.57
2018-05-06T19:48:10.672Z,2.23
2018-05-06T19:50:38.252Z,2.80
2018-05-06T19:53:06.574Z,2.80
2018-05-06T19:55:34.124Z,2.73
2018-05-06T19:58:01.680Z,2.57
2018-05-06T20:00:29.231Z,3.00
2018-05-06T20:02:56.815Z,2.60
2018-05-06T20:05:24.372Z,2.60
2018-05-06T20:07:51.928Z,2.83
2018-05-06T20:10:19.484Z,2.27
2018-05-06T20:12:47.080Z,2.50
2018-05-06T20:15:15.409Z,2.77
2018-05-06T20:17:42.959Z,2.33
2018-05-06T20:20:10.508Z,2.50
2018-05-06T20:22:38.070Z,2.63
2018-05-06T20:25:05.641Z,2.70
2018-05-06T20:27:33.225Z,2.60
2018-05-06T20:30:00.782Z,2.83
2018-05-06T20:32:28.328Z,2.40
2018-05-06T20:34:55.883Z,2.73
2018-05-06T20:37:23.437Z,2.80
2018-05-06T20:39:51.018Z,2.50
2018-05-06T20:42:18.580Z,2.83
2018-05-06T20:44:46.137Z,2.70
2018-05-06T20:47:13.689Z,2.47
2018-05-06T20:49:41.248Z,2.60
2018-05-06T20:52:08.824Z,2.53
2018-05-06T20:54:36.380Z,2.97
2018-05-06T20:57:03.937Z,2.50
2018-05-06T20:59:31.488Z,2.83
2018-05-06T21:01:59.076Z,2.67
2018-05-06T21:04:26.637Z,2.90
2018-05-06T21:06:54.193Z,2.77
2018-05-06T21:09:21.745Z,3.20
2018-05-06T21:11:49.295Z,3.17
2018-05-06T21:14:16.847Z,2.70
2018-05-06T21:16:44.459Z,2.60
2018-05-06T21:19:12.065Z,3.00
2018-05-06T21:21:39.595Z,2.67
2018-05-06T21:24:07.144Z,2.73
2018-05-06T21:26:34.702Z,3.10
2018-05-06T21:29:02.285Z,2.63
2018-05-06T21:31:29.837Z,2.90
2018-05-06T21:33:57.390Z,3.23
2018-05-06T21:36:24.943Z,2.77
2018-05-06T21:38:52.496Z,3.00
2018-05-06T21:41:20.065Z,2.80
2018-05-06T21:43:48.385Z,2.83
2018-05-06T21:46:15.932Z,3.20
2018-05-06T21:48:43.487Z,2.70
2018-05-06T21:51:11.036Z,2.80
2018-05-06T21:53:38.612Z,2.83
2018-05-06T21:56:06.160Z,2.63
2018-05-06T21:58:33.713Z,2.90
2018-05-06T22:01:01.269Z,3.10
2018-05-06T22:03:28.820Z,2.87
2018-05-06T22:05:56.393Z,2.77
2018-05-06T22:08:23.939Z,2.80
2018-05-06T22:10:51.507Z,2.83
2018-05-06T22:13:19.839Z,2.57
2018-05-06T22:15:47.395Z,2.77
2018-05-06T22:18:14.972Z,3.10
2018-05-06T22:20:43.309Z,2.87
2018-05-06T22:23:10.868Z,3.17
2018-05-06T22:25:38.430Z,2.90
2018-05-06T22:28:05.986Z,2.97
2018-05-06T22:30:33.537Z,2.70
2018-05-06T22:33:01.100Z,2.70
2018-05-06T22:35:28.647Z,2.80
2018-05-06T22:37:56.200Z,2.80
2018-05-06T22:40:23.755Z,2.90
2018-05-06T22:42:52.068Z,2.87
2018-05-06T22:45:19.622Z,3.03
2018-05-06T22:47:47.200Z,2.77
2018-05-06T22:50:14.748Z,2.50
2018-05-06T22:52:42.301Z,2.73
2018-05-06T22:55:09.855Z,2.73
2018-05-06T22:57:37.428Z,2.57
2018-05-06T23:00:05.008Z,3.00
2018-05-06T23:02:32.563Z,2.60
2018-05-06T23:05:00.116Z,3.13
2018-05-06T23:07:27.664Z,2.70
2018-05-06T23:09:55.214Z,2.90
2018-05-06T23:12:22.784Z,2.90
2018-05-06T23:14:50.336Z,2.80
2018-05-06T23:17:17.887Z,3.17
2018-05-06T23:19:45.433Z,3.23
2018-05-06T23:22:13.043Z,3.10
2018-05-06T23:24:40.591Z,2.40
2018-05-06T23:27:08.146Z,3.00
2018-05-06T23:29:35.708Z,2.70
2018-05-06T23:32:03.263Z,2.73
2018-05-06T23:34:30.819Z,2.77
2018-05-06T23:36:58.391Z,2.93
2018-05-06T23:39:25.948Z,3.27
2018-05-06T23:41:53.500Z,3.23
2018-05-06T23:44:21.048Z,3.07
2018-05-06T23:46:48.608Z,3.30
2018-05-06T23:49:16.183Z,2.57
2018-05-06T23:51:44.513Z,3.10
2018-05-06T23:54:12.072Z,2.87
2018-05-06T23:56:39.624Z,2.87
2018-05-06T23:59:07.174Z,3.27
